Accueil
METAR-TAF:

METAR-TAF

Aéroports :

Djibouti, Djibouti

Aéroport international Ambouli

latitude: 11-33N, longitude: 043-10E, altitude: 49 m

Observation

Le bulletin a été fait il y a 18 heures et 39 minutes, à 10:00 UTC
Vent 8 kt de est
Température 30°C
Humidité 49%
Pression 1019 hPa
Visibilité 10 km ou plus
Quelques nuages à une hauteur de 2300 ft

METAR: HDAM 111000Z 10008KT 9999 FEW023 30/18 Q1019

Heure: 07:39 (04:39 UTC)

Prévision

Le bulletin a été fait il y a 17 heures et 39 minutes, à 11:00 UTC
Prévision valable du 11 à 12 UTC au 12 à 12 UTC
Vent 10 kt de est
Visibilité 10 km ou plus
Quelques nuages à une hauteur de 2300 ft
Evoluant progressivement
du 11 à 15 UTC au 11 à 18 UTC
Vent 3 kt de direction variable
Evoluant progressivement
du 12 à 00 UTC au 12 à 06 UTC
Vent kt de nord
Nuages épars à une hauteur de 2000 ft

TAF: HDAM 111100Z 1112/1212 08010KT 9999 FEW023 BECMG 1115/1118 VRB03KT BECMG 1200/1206 00000KT SCT020

Observations et prévisions météorologiques de plus de 4000 aéroports (messages METAR et TAF).

Les stations disponibles sont représentées par des disques jaunes et rouges sur la carte.

Passer la souris dessus pour voir le nom de la station.

Cliquer dessus pour voir les observations et prévisions météorologiques.

Pour changer de carte: cliquez sur les boutons verts avec une croix noire pour zoomer, sur le bouton vert avec un tiret pour effectuer un zoom arrière, ou sur les flèches vertes pour les cartes adjacentes.


METAR-TAF: